Time;durP1;ratioP1;P1;durP2;ratioP2;P2;SDS_P1;SDS_P2;PMS_P1;PMS_P2;Temp;Humidity;BMP_temperature;BMP_pressure;BME280_temperature;BME280_humidity;BME280_pressure;Samples;Min_cycle;Max_cycle;Signal;HPM_P1;HPM_P2
2022/12/05 00:01:51;;;;;;;13.00;9.00;;;;;;;3.93;100.00;102112.53;4998101;28;20181;-43
2022/12/05 00:04:17;;;;;;;10.65;8.20;;;;;;;3.95;100.00;102109.91;4993945;28;20207;-41
2022/12/05 00:06:42;;;;;;;9.60;8.07;;;;;;;3.96;100.00;102109.03;5000353;28;20174;-40
2022/12/05 00:09:10;;;;;;;9.63;8.07;;;;;;;3.96;100.00;102122.28;4995135;28;20336;-43
2022/12/05 00:11:38;;;;;;;11.80;7.05;;;;;;;3.95;100.00;102089.59;4997800;28;20185;-41
2022/12/05 00:14:04;;;;;;;12.35;7.13;;;;;;;3.95;100.00;102115.22;4998504;28;20170;-42
2022/12/05 00:16:32;;;;;;;10.57;7.57;;;;;;;3.97;100.00;102087.84;4996418;28;20180;-41
2022/12/05 00:19:02;;;;;;;10.82;7.47;;;;;;;3.96;100.00;102098.41;5002919;28;20259;-42
2022/12/05 00:21:30;;;;;;;9.10;7.28;;;;;;;3.96;100.00;102101.06;5000310;28;20176;-41
2022/12/05 00:23:57;;;;;;;9.90;7.35;;;;;;;3.97;100.00;102098.44;4994147;28;20198;-42
2022/12/05 00:26:23;;;;;;;10.23;6.90;;;;;;;3.99;100.00;102094.03;4999408;28;20670;-43
2022/12/05 00:28:50;;;;;;;10.18;7.05;;;;;;;3.98;100.00;102099.31;4995276;28;20243;-42
2022/12/05 00:31:20;;;;;;;7.82;6.10;;;;;;;3.99;100.00;102102.00;5003012;28;20169;-40
2022/12/05 00:33:47;;;;;;;8.57;6.82;;;;;;;4.00;100.00;102105.53;4996266;28;20636;-41
2022/12/05 00:36:24;;;;;;;9.27;6.25;;;;;;;4.03;100.00;102126.81;5013095;28;20663;-42
2022/12/05 00:38:50;;;;;;;9.00;5.70;;;;;;;4.05;100.00;102096.75;5004226;28;20223;-42
2022/12/05 00:41:18;;;;;;;10.85;5.97;;;;;;;4.03;100.00;102093.19;5002722;28;20402;-43
2022/12/05 00:43:44;;;;;;;8.20;5.57;;;;;;;4.03;100.00;102102.94;5006432;28;20192;-40
2022/12/05 00:46:14;;;;;;;9.32;5.57;;;;;;;4.04;100.00;102099.38;5012447;28;20255;-42
2022/12/05 00:48:40;;;;;;;8.25;5.53;;;;;;;4.05;100.00;102101.19;5008959;28;20736;-43
2022/12/05 00:51:07;;;;;;;6.40;4.90;;;;;;;4.05;100.00;102095.88;5002735;28;20259;-41
2022/12/05 00:53:33;;;;;;;9.82;5.40;;;;;;;4.04;100.00;102097.63;4997357;28;20172;-42
2022/12/05 00:56:11;;;;;;;8.45;4.80;;;;;;;4.04;100.00;102102.91;4995228;28;20174;-44
2022/12/05 00:58:37;;;;;;;9.07;6.10;;;;;;;4.06;100.00;102092.34;5005570;28;20231;-43
2022/12/05 01:01:10;;;;;;;7.28;5.75;;;;;;;4.04;100.00;102080.81;4997821;28;20209;-43
2022/12/05 01:03:36;;;;;;;9.27;5.45;;;;;;;4.04;100.00;102081.72;5006053;28;20269;-42
2022/12/05 01:06:02;;;;;;;9.32;5.47;;;;;;;4.07;100.00;102070.25;5001956;28;20199;-42
2022/12/05 01:08:27;;;;;;;6.75;4.93;;;;;;;4.08;100.00;102072.91;5012054;28;20223;-42
2022/12/05 01:10:54;;;;;;;6.15;4.80;;;;;;;4.06;100.00;102087.91;5004999;28;20204;-42
2022/12/05 01:13:21;;;;;;;6.65;4.68;;;;;;;4.09;100.00;102076.47;4997810;28;20589;-44
2022/12/05 01:15:46;;;;;;;6.15;4.80;;;;;;;4.08;100.00;102070.25;4998470;28;20216;-43
2022/12/05 01:18:12;;;;;;;8.20;5.13;;;;;;;4.07;100.00;102084.41;4994460;28;20206;-42
2022/12/05 01:20:39;;;;;;;7.40;4.78;;;;;;;4.07;100.00;102084.41;5004413;28;20229;-41
2022/12/05 01:23:04;;;;;;;9.32;5.03;;;;;;;4.07;100.00;102086.19;4995673;28;20272;-42
2022/12/05 01:25:30;;;;;;;6.95;4.57;;;;;;;4.09;100.00;102087.09;4997190;28;20280;-42
2022/12/05 01:27:56;;;;;;;5.53;4.25;;;;;;;4.05;100.00;102086.16;5019074;28;20180;-41
2022/12/05 01:30:21;;;;;;;6.03;5.05;;;;;;;4.04;100.00;102079.06;5007077;28;20196;-42
2022/12/05 01:32:47;;;;;;;5.97;4.20;;;;;;;4.04;100.00;102076.41;5000109;28;20217;-42
2022/12/05 01:35:12;;;;;;;8.02;5.20;;;;;;;4.03;100.00;102073.75;5001793;28;20541;-42
2022/12/05 01:37:38;;;;;;;8.73;4.78;;;;;;;4.05;100.00;102075.53;4999570;28;20196;-43
2022/12/05 01:40:04;;;;;;;7.72;4.97;;;;;;;4.05;100.00;102070.25;5002190;28;20261;-43
2022/12/05 01:42:29;;;;;;;6.93;4.95;;;;;;;4.05;100.00;102072.91;4997690;28;20184;-42
2022/12/05 01:45:17;;;;;;;8.45;4.90;;;;;;;4.05;100.00;102067.59;4998329;28;20277;-40
2022/12/05 01:47:43;;;;;;;7.65;5.38;;;;;;;4.05;100.00;102066.72;5001921;28;20664;-42
2022/12/05 01:50:10;;;;;;;10.07;4.68;;;;;;;4.06;100.00;102057.84;4998389;28;20205;-41
2022/12/05 01:52:37;;;;;;;5.72;5.00;;;;;;;4.03;100.00;102056.06;5002437;28;20267;-42
2022/12/05 01:55:09;;;;;;;8.35;5.22;;;;;;;4.04;100.00;102065.78;4998383;28;20256;-40
2022/12/05 01:57:35;;;;;;;10.68;5.07;;;;;;;4.04;100.00;102063.13;5005860;28;20216;-41
2022/12/05 02:00:09;;;;;;;9.13;5.57;;;;;;;4.01;100.00;102057.81;5000136;28;20215;-43
2022/12/05 02:02:45;;;;;;;8.32;5.03;;;;;;;4.02;100.00;102059.59;5001391;28;20176;-43
2022/12/05 02:05:17;;;;;;;8.45;5.00;;;;;;;4.01;100.00;102054.28;5000026;28;20204;-43
2022/12/05 02:07:45;;;;;;;8.13;5.45;;;;;;;4.01;100.00;102046.34;5002903;28;20181;-42
2022/12/05 02:10:11;;;;;;;9.93;5.57;;;;;;;4.03;100.00;102049.91;5001746;28;20209;-43
2022/12/05 02:12:37;;;;;;;8.35;5.70;;;;;;;4.00;100.00;102056.06;4997572;28;20669;-42
2022/12/05 02:15:23;;;;;;;8.70;6.03;;;;;;;3.98;100.00;102035.69;5012649;28;20573;-44
2022/12/05 02:18:01;;;;;;;7.72;5.47;;;;;;;3.96;100.00;102037.44;5011715;28;20181;-43
2022/12/05 02:20:37;;;;;;;8.57;5.78;;;;;;;3.97;100.00;102033.94;5012538;28;20341;-44
2022/12/05 02:23:18;;;;;;;6.97;6.05;;;;;;;3.99;100.00;102034.81;5011351;28;20594;-44
2022/12/05 02:25:55;;;;;;;6.63;5.88;;;;;;;3.96;100.00;102045.38;5011951;28;20192;-44
2022/12/05 02:28:29;;;;;;;9.23;6.50;;;;;;;3.94;100.00;102040.09;5012305;28;20165;-44
2022/12/05 02:31:16;;;;;;;8.02;6.03;;;;;;;3.94;100.00;102045.41;5012004;28;20251;-45
2022/12/05 02:33:51;;;;;;;9.63;6.53;;;;;;;3.94;100.00;102048.06;5012470;28;20754;-45
2022/12/05 02:36:22;;;;;;;10.32;6.43;;;;;;;3.95;100.00;102040.97;5012259;28;20637;-45
2022/12/05 02:39:05;;;;;;;9.57;6.82;;;;;;;3.95;100.00;102056.88;5012080;28;20343;-44
2022/12/05 02:41:36;;;;;;;11.98;6.90;;;;;;;3.96;100.00;102043.66;5012072;28;20160;-43
2022/12/05 02:44:13;;;;;;;8.85;6.53;;;;;;;3.97;100.00;102042.75;5011674;28;20201;-43
2022/12/05 02:46:40;;;;;;;9.35;6.07;;;;;;;3.98;100.00;102035.69;5011905;28;20559;-45
2022/12/05 02:49:12;;;;;;;9.20;6.65;;;;;;;3.97;100.00;102031.28;5008186;28;20224;-45
2022/12/05 02:51:43;;;;;;;10.80;6.22;;;;;;;3.94;100.00;102033.91;5000820;28;20749;-46
2022/12/05 02:54:14;;;;;;;12.93;6.75;;;;;;;3.92;100.00;102031.25;4997971;28;20262;-46
2022/12/05 02:56:43;;;;;;;10.52;6.47;;;;;;;3.90;100.00;102055.06;4998578;28;20196;-45
2022/12/05 02:59:09;;;;;;;10.20;7.25;;;;;;;3.91;100.00;102034.75;5016260;28;20222;-45
2022/12/05 03:01:34;;;;;;;14.00;7.07;;;;;;;3.89;100.00;102031.19;5004635;28;20184;-46
2022/12/05 03:04:03;;;;;;;10.38;7.10;;;;;;;3.92;100.00;102031.25;5002656;28;20219;-45
2022/12/05 03:06:38;;;;;;;11.55;7.10;;;;;;;3.90;100.00;102028.56;4997301;28;20188;-44
2022/12/05 03:09:07;;;;;;;12.15;7.40;;;;;;;3.90;100.00;102019.72;5014309;28;20201;-45
2022/12/05 03:11:38;;;;;;;10.15;6.88;;;;;;;3.87;100.00;102022.34;4995547;28;20271;-45
2022/12/05 03:14:10;;;;;;;13.18;7.22;;;;;;;3.95;100.00;102025.94;4998705;28;20177;-44
2022/12/05 03:16:43;;;;;;;11.13;7.65;;;;;;;3.90;100.00;102025.03;4995156;28;20259;-45
2022/12/05 03:19:14;;;;;;;12.90;7.50;;;;;;;3.94;100.00;102018.00;4998990;28;20761;-45
2022/12/05 03:21:48;;;;;;;11.57;7.38;;;;;;;3.92;100.00;102016.22;4997826;28;20700;-44
2022/12/05 03:24:15;;;;;;;13.45;7.60;;;;;;;3.90;100.00;102010.00;4995706;28;20306;-44
2022/12/05 03:27:35;;;;;;;10.15;7.15;;;;;;;3.90;100.00;102017.06;4998379;28;20195;-41
2022/12/05 03:30:04;;;;;;;11.57;7.50;;;;;;;3.93;100.00;102011.78;4968073;28;20217;-40
2022/12/05 03:32:36;;;;;;;12.43;7.60;;;;;;;3.90;100.00;102007.34;5000196;28;20192;-42
2022/12/05 03:35:05;;;;;;;10.27;7.40;;;;;;;3.89;100.00;102002.94;4998896;28;20173;-42
2022/12/05 03:37:39;;;;;;;13.90;7.85;;;;;;;3.95;100.00;102001.22;5015360;28;20192;-43
2022/12/05 03:40:17;;;;;;;13.45;7.38;;;;;;;3.90;100.00;101995.88;5000433;28;20671;-41
2022/12/05 03:42:53;;;;;;;12.43;7.45;;;;;;;3.89;100.00;102004.69;4998128;28;20184;-41
2022/12/05 03:45:26;;;;;;;12.70;7.63;;;;;;;3.89;100.00;102004.69;4999366;28;20254;-43
2022/12/05 03:48:03;;;;;;;14.07;8.52;;;;;;;3.90;100.00;101999.41;5004240;28;20208;-40
2022/12/05 03:50:28;;;;;;;13.80;8.52;;;;;;;3.88;100.00;101994.97;4993703;28;20211;-41
2022/12/05 03:53:02;;;;;;;12.68;8.68;;;;;;;3.86;100.00;102015.28;4998377;28;20181;-42
2022/12/05 03:55:31;;;;;;;11.45;8.55;;;;;;;3.88;100.00;101990.53;4996151;28;20367;-43
2022/12/05 03:58:04;;;;;;;14.02;8.60;;;;;;;3.85;100.00;101992.31;4995092;28;20176;-43
2022/12/05 04:00:35;;;;;;;14.60;8.75;;;;;;;3.86;100.00;101988.75;4998586;28;20393;-41
2022/12/05 04:03:16;;;;;;;13.63;8.63;;;;;;;3.82;100.00;101994.91;4995117;28;20663;-46
2022/12/05 04:05:57;;;;;;;12.75;8.43;;;;;;;3.81;100.00;101990.50;5000727;28;20208;-46
2022/12/05 04:08:39;;;;;;;11.30;8.23;;;;;;;3.78;100.00;101986.03;4995876;28;20196;-46
2022/12/05 04:11:11;;;;;;;12.77;8.90;;;;;;;3.79;100.00;101985.19;4995934;28;20231;-47
2022/12/05 04:14:12;;;;;;;13.43;8.57;;;;;;;3.76;100.00;102002.81;4998111;28;20189;-46
2022/12/05 04:17:03;;;;;;;10.38;8.75;;;;;;;3.75;100.00;101983.38;4997234;28;20205;-45
2022/12/05 04:22:25;;;;;;;13.27;8.52;;;;;;;3.73;100.00;101971.88;4997545;28;20189;-47
2022/12/05 04:27:53;;;;;;;11.57;8.18;;;;;;;3.72;100.00;101988.66;4997952;28;20227;-45
2022/12/05 04:30:22;;;;;;;12.52;8.27;;;;;;;3.70;100.00;101985.97;4996626;28;20211;-47
2022/12/05 04:32:59;;;;;;;10.88;8.35;;;;;;;3.68;100.00;101984.19;4997727;28;20192;-46
2022/12/05 04:35:57;;;;;;;11.82;8.60;;;;;;;3.68;100.00;101982.44;5003937;28;20258;-47
2022/12/05 04:38:31;;;;;;;11.90;8.25;;;;;;;3.70;100.00;101977.16;4972622;28;20676;-45
2022/12/05 04:40:58;;;;;;;11.52;8.60;;;;;;;3.71;100.00;101976.25;5008175;28;20750;-46
2022/12/05 04:43:26;;;;;;;12.80;8.68;;;;;;;3.71;100.00;101971.84;5010257;28;20312;-43
2022/12/05 04:45:56;;;;;;;14.35;8.60;;;;;;;3.70;100.00;101971.84;5010174;28;20191;-42
2022/12/05 04:48:24;;;;;;;11.18;8.45;;;;;;;3.68;100.00;101979.78;5009749;28;20169;-42
2022/12/05 04:50:52;;;;;;;12.85;8.93;;;;;;;3.66;100.00;101980.66;5010283;28;20181;-43
2022/12/05 04:53:20;;;;;;;15.65;8.43;;;;;;;3.65;100.00;101978.84;5009405;28;20173;-41
2022/12/05 04:55:49;;;;;;;12.60;8.73;;;;;;;3.64;100.00;101993.88;5009961;28;20169;-42
2022/12/05 04:58:21;;;;;;;12.35;8.52;;;;;;;3.64;100.00;101980.63;5008502;28;20329;-43
2022/12/05 05:00:52;;;;;;;12.85;8.63;;;;;;;3.66;100.00;101993.91;5009636;28;20546;-45
2022/12/05 05:03:26;;;;;;;16.83;8.27;;;;;;;3.66;100.00;101989.47;5009248;28;20183;-41
2022/12/05 05:05:53;;;;;;;11.68;8.13;;;;;;;3.66;100.00;101992.13;5009920;28;20275;-42
2022/12/05 05:08:24;;;;;;;12.63;7.90;;;;;;;3.64;100.00;101995.66;5009993;28;20665;-42
2022/12/05 05:11:11;;;;;;;9.90;7.40;;;;;;;3.64;100.00;102001.81;5009867;28;20168;-43
2022/12/05 05:13:36;;;;;;;10.80;8.00;;;;;;;3.66;100.00;101981.53;5008571;28;20172;-42
2022/12/05 05:16:02;;;;;;;9.38;7.32;;;;;;;3.63;100.00;101986.81;5009652;28;20585;-44
2022/12/05 05:18:28;;;;;;;9.23;7.20;;;;;;;3.64;100.00;102004.47;5009033;28;20208;-42
2022/12/05 05:20:53;;;;;;;11.93;7.63;;;;;;;3.64;100.00;101990.34;5012626;28;20197;-42
2022/12/05 05:23:19;;;;;;;11.18;7.50;;;;;;;3.68;100.00;101995.69;5012676;28;20707;-41
2022/12/05 05:25:50;;;;;;;11.65;7.55;;;;;;;3.67;100.00;101991.28;5013295;28;20560;-44
2022/12/05 05:28:15;;;;;;;15.23;7.68;;;;;;;3.65;100.00;101995.66;5026874;28;20181;-45
2022/12/05 05:30:41;;;;;;;11.07;7.60;;;;;;;3.65;100.00;102002.72;5013028;28;20646;-41
2022/12/05 05:33:06;;;;;;;11.10;7.65;;;;;;;3.63;100.00;102000.06;5011893;28;20651;-46
2022/12/05 05:35:35;;;;;;;10.35;7.30;;;;;;;3.66;100.00;101992.13;5013212;28;20161;-39
2022/12/05 05:38:01;;;;;;;11.23;7.28;;;;;;;3.67;100.00;102001.88;5011878;28;20210;-44
2022/12/05 05:40:26;;;;;;;15.35;7.88;;;;;;;3.69;100.00;102002.75;5013053;28;20233;-43
2022/12/05 05:42:52;;;;;;;14.75;8.30;;;;;;;3.67;100.00;102003.59;5011436;28;20185;-44
2022/12/05 05:45:17;;;;;;;12.40;8.30;;;;;;;3.68;100.00;101998.34;5013009;28;20203;-43
2022/12/05 05:47:44;;;;;;;10.20;7.78;;;;;;;3.74;100.00;102001.91;5011057;28;20919;-45
2022/12/05 05:50:10;;;;;;;15.95;8.50;;;;;;;3.70;100.00;102003.66;5012565;28;20181;-42
2022/12/05 05:52:36;;;;;;;12.38;7.97;;;;;;;3.70;100.00;102011.59;5013195;28;20223;-47
2022/12/05 05:55:03;;;;;;;15.25;8.93;;;;;;;3.72;100.00;102001.91;5000514;28;20554;-47
2022/12/05 05:57:30;;;;;;;14.02;8.88;;;;;;;3.71;100.00;102008.94;5001028;28;20185;-47
2022/12/05 05:59:55;;;;;;;11.05;8.70;;;;;;;3.72;100.00;102001.91;5000392;28;20269;-45
2022/12/05 06:02:21;;;;;;;12.07;8.70;;;;;;;3.72;100.00;102001.91;5000455;28;20182;-49
2022/12/05 06:04:46;;;;;;;14.77;8.73;;;;;;;3.75;100.00;102001.03;4999484;28;20200;-45
2022/12/05 06:07:12;;;;;;;11.25;9.32;;;;;;;3.74;100.00;102009.84;4997796;28;20181;-47
2022/12/05 06:09:37;;;;;;;11.00;8.85;;;;;;;3.78;100.00;102009.88;4997795;28;20595;-46
2022/12/05 06:12:03;;;;;;;13.43;9.43;;;;;;;3.78;100.00;101999.28;4996941;28;20274;-46
2022/12/05 06:14:29;;;;;;;13.60;10.07;;;;;;;3.78;100.00;101996.63;4998611;28;20182;-46
2022/12/05 06:16:54;;;;;;;17.40;10.13;;;;;;;3.78;100.00;102001.06;4995434;28;20200;-45
2022/12/05 06:19:20;;;;;;;14.05;9.60;;;;;;;3.78;100.00;102001.06;4999788;28;20219;-48
2022/12/05 06:21:48;;;;;;;16.55;10.43;;;;;;;3.78;100.00;101998.41;4998106;28;20188;-47
2022/12/05 06:24:13;;;;;;;14.60;9.63;;;;;;;3.79;100.00;102000.19;5001013;28;20205;-45
2022/12/05 06:26:39;;;;;;;11.68;8.90;;;;;;;3.81;100.00;101990.50;4999940;28;20238;-47
2022/12/05 06:29:04;;;;;;;14.65;9.27;;;;;;;3.81;100.00;101995.81;4997178;28;20206;-48
2022/12/05 06:31:32;;;;;;;14.45;9.60;;;;;;;3.81;100.00;102017.88;5002713;28;20193;-46
2022/12/05 06:34:02;;;;;;;12.40;8.98;;;;;;;3.81;100.00;101986.06;4999595;28;20177;-49
2022/12/05 06:36:29;;;;;;;12.18;9.00;;;;;;;3.83;100.00;102005.53;5001580;28;20192;-48
2022/12/05 06:38:56;;;;;;;14.85;9.40;;;;;;;3.82;100.00;102003.75;4999115;28;20484;-47
2022/12/05 06:41:23;;;;;;;12.73;8.98;;;;;;;3.83;100.00;101992.28;5000383;28;20181;-48
2022/12/05 06:43:52;;;;;;;14.93;9.23;;;;;;;3.83;100.00;101991.41;5000764;28;20173;-48
2022/12/05 06:46:17;;;;;;;13.75;9.40;;;;;;;3.85;100.00;101997.59;4998779;28;20188;-46
2022/12/05 06:48:43;;;;;;;18.05;9.65;;;;;;;3.86;100.00;101996.72;4999173;28;20204;-46
2022/12/05 06:51:11;;;;;;;16.50;9.30;;;;;;;3.86;100.00;101999.38;4998460;28;20192;-47
2022/12/05 06:53:37;;;;;;;16.38;9.68;;;;;;;3.86;100.00;101996.72;4997064;28;20298;-45
2022/12/05 06:56:06;;;;;;;17.33;10.40;;;;;;;3.87;100.00;101986.13;4996260;28;20283;-48
2022/12/05 06:58:31;;;;;;;15.43;9.60;;;;;;;3.85;100.00;101994.97;4997238;28;20450;-47
2022/12/05 07:03:42;;;;;;;16.75;9.52;;;;;;;3.83;100.00;101994.06;4994825;28;20275;-47
2022/12/05 07:06:08;;;;;;;16.00;8.63;;;;;;;3.83;100.00;101978.16;4998633;28;20190;-47
2022/12/05 07:08:34;;;;;;;14.60;9.35;;;;;;;3.85;100.00;101992.31;4998299;28;20184;-48
2022/12/05 07:11:01;;;;;;;14.43;9.82;;;;;;;3.85;100.00;101995.84;4997235;28;20185;-46
2022/12/05 07:13:27;;;;;;;17.58;9.93;;;;;;;3.92;100.00;101996.78;4999945;28;20177;-48
2022/12/05 07:15:52;;;;;;;14.48;8.48;;;;;;;3.88;100.00;101990.53;4996521;28;20180;-46
2022/12/05 07:18:18;;;;;;;17.60;11.02;;;;;;;3.90;100.00;102001.19;4998093;28;20323;-47
2022/12/05 07:20:44;;;;;;;18.50;9.77;;;;;;;3.92;100.00;101992.34;4998188;28;20197;-48
2022/12/05 07:23:10;;;;;;;17.00;9.65;;;;;;;3.89;100.00;101981.72;4997344;28;20180;-47
2022/12/05 07:25:40;;;;;;;13.70;8.85;;;;;;;3.92;100.00;101988.81;4999053;28;20719;-47
2022/12/05 07:28:06;;;;;;;15.35;8.40;;;;;;;3.90;100.00;101999.41;5000350;28;20172;-47
2022/12/05 07:30:32;;;;;;;16.98;8.70;;;;;;;3.94;100.00;101992.38;5000381;28;20224;-48
2022/12/05 07:32:57;;;;;;;14.23;8.75;;;;;;;3.91;100.00;101987.03;4997810;28;20173;-48
2022/12/05 07:35:23;;;;;;;16.60;7.80;;;;;;;3.93;100.00;101985.28;5001862;28;20178;-48
2022/12/05 07:37:48;;;;;;;11.65;7.40;;;;;;;3.90;100.00;101991.44;5016790;28;20180;-48
2022/12/05 07:40:14;;;;;;;10.82;7.15;;;;;;;3.94;100.00;101992.38;4998015;28;20222;-46
2022/12/05 07:42:39;;;;;;;11.27;6.70;;;;;;;3.93;100.00;101990.56;4995662;28;20192;-46
2022/12/05 07:45:06;;;;;;;10.45;7.35;;;;;;;3.94;100.00;101992.38;4995756;28;20643;-47
2022/12/05 07:47:32;;;;;;;8.10;6.25;;;;;;;3.95;100.00;101983.53;4998952;28;20668;-49
2022/12/05 07:49:57;;;;;;;13.20;7.32;;;;;;;3.96;100.00;101993.28;4994790;28;20193;-49
2022/12/05 07:52:23;;;;;;;14.57;7.55;;;;;;;3.99;100.00;101995.94;4997181;28;20197;-48
2022/12/05 07:54:48;;;;;;;15.80;7.85;;;;;;;4.01;100.00;101993.31;4998275;28;20214;-46
2022/12/05 07:57:13;;;;;;;18.02;8.60;;;;;;;4.03;100.00;101991.56;4998758;28;20196;-47
2022/12/05 07:59:39;;;;;;;13.45;6.95;;;;;;;4.01;100.00;101991.53;4998584;28;20212;-48
2022/12/05 08:02:05;;;;;;;11.68;8.00;;;;;;;4.03;100.00;102004.81;4996782;28;20177;-47
2022/12/05 08:04:30;;;;;;;12.38;7.03;;;;;;;4.01;100.00;101988.88;4995220;28;20204;-49
2022/12/05 08:06:56;;;;;;;8.38;5.75;;;;;;;4.05;100.00;101992.47;4998169;28;20181;-50
2022/12/05 08:09:21;;;;;;;8.63;6.20;;;;;;;4.04;100.00;101994.19;4996689;28;20196;-47
2022/12/05 08:11:47;;;;;;;13.60;5.95;;;;;;;4.04;100.00;101991.53;4996690;28;20181;-49
2022/12/05 08:14:12;;;;;;;13.95;6.43;;;;;;;4.04;100.00;101996.84;4999537;28;20233;-49
2022/12/05 08:16:37;;;;;;;9.68;5.57;;;;;;;4.07;100.00;101991.59;5001095;28;20196;-47
2022/12/05 08:19:06;;;;;;;10.57;6.15;;;;;;;4.06;100.00;102000.41;4999015;28;20702;-48
2022/12/05 08:21:33;;;;;;;14.63;6.30;;;;;;;4.06;100.00;101992.44;4997535;28;20193;-47
2022/12/05 08:23:59;;;;;;;10.57;5.85;;;;;;;4.08;100.00;102001.31;4997613;28;20260;-49
2022/12/05 08:26:29;;;;;;;13.18;6.25;;;;;;;4.08;100.00;101997.75;4997306;28;20204;-47
2022/12/05 08:29:03;;;;;;;12.63;6.05;;;;;;;4.07;100.00;101996.00;4995723;28;20291;-46
2022/12/05 08:31:31;;;;;;;9.73;5.40;;;;;;;4.08;100.00;101998.66;4994306;28;20181;-48
2022/12/05 08:33:58;;;;;;;9.75;5.18;;;;;;;4.09;100.00;101997.78;4997757;28;20221;-47
2022/12/05 08:36:24;;;;;;;12.88;6.00;;;;;;;4.10;100.00;102002.19;4995041;28;20180;-47
2022/12/05 08:38:55;;;;;;;10.52;6.03;;;;;;;4.10;100.00;101998.66;5000246;28;20698;-47
2022/12/05 08:41:20;;;;;;;13.35;5.80;;;;;;;4.12;100.00;101989.84;4996364;28;20204;-46
2022/12/05 08:43:46;;;;;;;12.57;6.07;;;;;;;4.12;100.00;101997.81;4996678;28;20192;-48
2022/12/05 08:46:12;;;;;;;10.52;7.05;;;;;;;4.13;100.00;101986.31;4997468;28;20263;-48
2022/12/05 08:48:37;;;;;;;10.52;5.80;;;;;;;4.14;100.00;101989.88;4996430;28;20200;-48
2022/12/05 08:51:08;;;;;;;12.38;6.35;;;;;;;4.15;100.00;101991.63;5000683;28;20193;-47
2022/12/05 08:53:35;;;;;;;12.50;7.28;;;;;;;4.17;100.00;101983.69;4997495;28;20188;-47
2022/12/05 08:56:01;;;;;;;11.48;6.47;;;;;;;4.19;100.00;101996.06;5004029;28;20164;-47
2022/12/05 08:58:28;;;;;;;11.68;6.97;;;;;;;4.20;100.00;101999.59;5000598;28;20211;-47
2022/12/05 09:00:54;;;;;;;12.32;7.57;;;;;;;4.21;100.00;101994.31;5001539;28;20178;-48
2022/12/05 09:03:19;;;;;;;11.73;7.50;;;;;;;4.22;100.00;101998.75;5002167;28;20263;-48
2022/12/05 09:05:45;;;;;;;12.98;7.45;;;;;;;4.22;100.00;101993.47;5004426;28;20214;-49
2022/12/05 09:08:10;;;;;;;13.38;7.63;;;;;;;4.25;100.00;101992.59;5004926;28;20662;-47
2022/12/05 09:10:37;;;;;;;15.57;8.18;;;;;;;4.26;100.00;101992.59;5002082;28;20597;-49
2022/12/05 09:13:02;;;;;;;14.93;8.38;;;;;;;4.27;100.00;101990.84;5016316;28;20186;-48
2022/12/05 09:15:28;;;;;;;20.25;8.73;;;;;;;4.29;100.00;101989.09;4998954;28;20181;-48
2022/12/05 09:17:53;;;;;;;16.88;8.68;;;;;;;4.29;100.00;101979.34;5012398;28;20189;-48
2022/12/05 09:20:19;;;;;;;17.38;9.38;;;;;;;4.30;100.00;101989.06;5002217;28;20217;-48
2022/12/05 09:22:44;;;;;;;14.77;9.15;;;;;;;4.29;100.00;101992.63;4997749;28;20178;-47
2022/12/05 09:25:10;;;;;;;17.35;10.40;;;;;;;4.29;100.00;101986.44;4998819;28;20605;-47
2022/12/05 09:27:35;;;;;;;16.30;9.63;;;;;;;4.30;100.00;101988.19;5001613;28;20192;-47
2022/12/05 09:30:01;;;;;;;15.40;9.80;;;;;;;4.29;100.00;101989.97;4998073;28;20197;-47
2022/12/05 09:32:26;;;;;;;17.20;9.55;;;;;;;4.30;100.00;101980.22;5003321;28;20169;-46
2022/12/05 09:34:53;;;;;;;14.38;9.30;;;;;;;4.32;100.00;101989.09;4996425;28;20184;-41
2022/12/05 09:37:19;;;;;;;18.33;9.75;;;;;;;4.31;100.00;101988.22;4993647;28;20177;-42
2022/12/05 09:39:44;;;;;;;15.32;9.77;;;;;;;4.31;100.00;101977.59;4993218;28;20181;-43
2022/12/05 09:42:25;;;;;;;17.63;9.93;;;;;;;4.32;100.00;101986.44;4993624;28;20161;-43
2022/12/05 09:45:29;;;;;;;16.52;10.20;;;;;;;4.34;100.00;101987.34;4993452;28;20182;-43
2022/12/05 09:47:59;;;;;;;21.65;10.18;;;;;;;4.34;100.00;101987.34;4993193;28;20197;-43
2022/12/05 09:50:56;;;;;;;17.13;10.43;;;;;;;4.34;100.00;101987.34;5008330;28;20202;-43
2022/12/05 09:53:34;;;;;;;18.73;11.63;;;;;;;4.33;100.00;101985.56;4989705;28;20253;-44
2022/12/05 09:56:04;;;;;;;19.67;11.80;;;;;;;4.34;100.00;101995.28;4993336;28;20197;-43
2022/12/05 09:58:48;;;;;;;22.85;11.85;;;;;;;4.37;100.00;101986.47;4993536;28;20173;-50
2022/12/05 10:01:35;;;;;;;25.48;11.23;;;;;;;4.39;100.00;101988.25;4999427;28;20189;-46
2022/12/05 10:04:19;;;;;;;25.10;11.27;;;;;;;4.32;100.00;101986.44;4995734;28;20263;-45
2022/12/05 10:07:00;;;;;;;17.17;10.88;;;;;;;4.36;100.00;101990.88;4999808;28;20267;-45
2022/12/05 10:10:04;;;;;;;16.10;9.93;;;;;;;4.32;100.00;101989.97;4999496;28;20193;-46
2022/12/05 10:12:42;;;;;;;17.13;9.57;;;;;;;4.34;100.00;101982.91;5000438;28;20193;-46
2022/12/05 10:15:18;;;;;;;22.98;10.82;;;;;;;4.32;100.00;101991.75;4998506;28;20817;-47
2022/12/05 10:17:56;;;;;;;26.65;10.90;;;;;;;4.34;100.00;101985.56;4999696;28;20793;-45
2022/12/05 10:20:27;;;;;;;21.85;11.73;;;;;;;4.29;100.00;101987.31;5001805;28;20296;-46
2022/12/05 10:23:02;;;;;;;22.05;11.00;;;;;;;4.29;100.00;101983.78;4995386;28;20210;-47
2022/12/05 10:25:31;;;;;;;17.75;10.82;;;;;;;4.27;100.00;101969.63;4999977;28;20648;-46
2022/12/05 10:28:00;;;;;;;20.67;10.65;;;;;;;4.25;100.00;101979.31;4999522;28;20184;-43
2022/12/05 10:30:34;;;;;;;19.13;9.27;;;;;;;4.23;100.00;101975.78;5002569;28;20193;-46
2022/12/05 10:33:03;;;;;;;18.83;9.30;;;;;;;4.22;100.00;101971.31;4999536;28;20184;-45
2022/12/05 10:35:39;;;;;;;14.60;7.97;;;;;;;4.18;100.00;101966.91;4999698;28;20647;-45
2022/12/05 10:38:25;;;;;;;17.63;8.55;;;;;;;4.19;100.00;101960.72;5001263;28;20180;-40
2022/12/05 10:40:54;;;;;;;17.17;8.57;;;;;;;4.20;100.00;101958.09;5000477;28;20173;-41
2022/12/05 10:43:28;;;;;;;24.92;10.25;;;;;;;4.17;100.00;101963.34;4998256;28;20182;-41
2022/12/05 10:45:55;;;;;;;21.13;10.40;;;;;;;4.18;100.00;101969.56;4999596;28;20561;-47
2022/12/05 10:48:21;;;;;;;22.05;10.18;;;;;;;4.17;100.00;101967.78;4998163;28;20188;-47
2022/12/05 10:50:50;;;;;;;22.25;11.07;;;;;;;4.18;100.00;101962.50;4995349;28;20181;-46
2022/12/05 10:53:28;;;;;;;21.02;12.48;;;;;;;4.17;100.00;101952.72;4999088;28;20181;-46
2022/12/05 10:55:54;;;;;;;22.00;11.23;;;;;;;4.19;100.00;101955.41;4996586;28;20276;-45
2022/12/05 10:58:24;;;;;;;23.25;12.13;;;;;;;4.18;100.00;101953.66;4997172;28;20172;-45
2022/12/05 11:00:54;;;;;;;26.65;12.35;;;;;;;4.18;100.00;101951.00;5000530;28;20271;-46
2022/12/05 11:03:25;;;;;;;23.55;11.40;;;;;;;4.16;100.00;101939.50;5001847;28;20179;-46
2022/12/05 11:05:54;;;;;;;21.55;11.18;;;;;;;4.17;100.00;101951.84;4999640;28;20213;-47
2022/12/05 11:08:28;;;;;;;21.90;11.88;;;;;;;4.12;100.00;101939.44;4997618;28;20644;-46
2022/12/05 11:11:29;;;;;;;24.35;11.73;;;;;;;4.12;100.00;101942.09;4995887;28;20858;-46
2022/12/05 11:13:56;;;;;;;23.27;11.63;;;;;;;4.10;100.00;101937.66;4996699;28;20204;-46
2022/12/05 11:16:38;;;;;;;19.02;10.18;;;;;;;4.06;100.00;101934.09;4997070;28;20270;-47
2022/12/05 11:19:33;;;;;;;21.02;11.23;;;;;;;4.07;100.00;101940.31;4999179;28;20667;-46
2022/12/05 11:21:59;;;;;;;22.77;10.68;;;;;;;4.06;100.00;101938.53;4998299;28;20577;-47
2022/12/05 11:24:27;;;;;;;22.27;12.50;;;;;;;4.06;100.00;101930.56;4997565;28;20220;-46
2022/12/05 11:26:53;;;;;;;21.40;12.20;;;;;;;4.09;100.00;101925.31;5001030;28;20217;-46
2022/12/05 11:29:36;;;;;;;26.50;13.38;;;;;;;4.06;100.00;101928.78;4997753;28;20691;-47
2022/12/05 11:32:04;;;;;;;29.63;13.82;;;;;;;4.05;100.00;101927.03;5001817;28;20188;-47
2022/12/05 11:34:57;;;;;;;23.05;13.50;;;;;;;4.07;100.00;101917.34;4997660;28;20217;-46
2022/12/05 11:37:34;;;;;;;27.70;13.77;;;;;;;4.07;100.00;101922.63;4994128;28;20611;-47
2022/12/05 11:40:02;;;;;;;26.02;15.23;;;;;;;4.10;100.00;101927.06;4999653;28;20295;-46